sensor_id;sensor_type;location;lat;lon;timestamp;pressure;altitude;pressure_sealevel;temperature;humidity
59608;BME280;45426;44.726;10.390;2023-04-05T00:00:38;100756.84;;;3.44;100.00
59608;BME280;45426;44.726;10.390;2023-04-05T00:03:04;100755.91;;;3.09;100.00
59608;BME280;45426;44.726;10.390;2023-04-05T00:05:30;100762.72;;;2.76;100.00
59608;BME280;45426;44.726;10.390;2023-04-05T00:07:56;100759.81;;;2.16;100.00
59608;BME280;45426;44.726;10.390;2023-04-05T00:10:22;100766.22;;;2.09;100.00
59608;BME280;45426;44.726;10.390;2023-04-05T00:12:47;100762.38;;;1.59;100.00
59608;BME280;45426;44.726;10.390;2023-04-05T00:15:15;100765.63;;;1.71;100.00
59608;BME280;45426;44.726;10.390;2023-04-05T00:17:40;100777.47;;;2.37;100.00
59608;BME280;45426;44.726;10.390;2023-04-05T00:20:08;100765.59;;;3.05;100.00
59608;BME280;45426;44.726;10.390;2023-04-05T00:22:35;100779.97;;;3.35;100.00
59608;BME280;45426;44.726;10.390;2023-04-05T00:25:02;100781.97;;;3.03;100.00
59608;BME280;45426;44.726;10.390;2023-04-05T00:27:27;100772.50;;;3.21;100.00
59608;BME280;45426;44.726;10.390;2023-04-05T00:29:53;100772.28;;;3.13;100.00
59608;BME280;45426;44.726;10.390;2023-04-05T00:32:18;100776.75;;;3.33;100.00
59608;BME280;45426;44.726;10.390;2023-04-05T00:34:43;100778.28;;;3.54;100.00
59608;BME280;45426;44.726;10.390;2023-04-05T00:37:10;100770.66;;;3.17;100.00
59608;BME280;45426;44.726;10.390;2023-04-05T00:39:37;100772.00;;;3.14;100.00
59608;BME280;45426;44.726;10.390;2023-04-05T00:42:03;100766.91;;;3.13;100.00
59608;BME280;45426;44.726;10.390;2023-04-05T00:44:31;100775.88;;;2.26;100.00
59608;BME280;45426;44.726;10.390;2023-04-05T00:47:03;100780.34;;;1.64;100.00
59608;BME280;45426;44.726;10.390;2023-04-05T00:49:30;100774.69;;;1.50;100.00
59608;BME280;45426;44.726;10.390;2023-04-05T00:51:57;100780.66;;;1.88;100.00
59608;BME280;45426;44.726;10.390;2023-04-05T00:54:23;100774.00;;;2.16;100.00
59608;BME280;45426;44.726;10.390;2023-04-05T00:56:50;100778.81;;;2.76;100.00
59608;BME280;45426;44.726;10.390;2023-04-05T00:59:17;100778.50;;;2.82;100.00
59608;BME280;45426;44.726;10.390;2023-04-05T01:01:43;100772.25;;;3.18;100.00
59608;BME280;45426;44.726;10.390;2023-04-05T01:04:21;100775.72;;;3.23;100.00
59608;BME280;45426;44.726;10.390;2023-04-05T01:07:04;100779.50;;;3.27;100.00
59608;BME280;45426;44.726;10.390;2023-04-05T01:09:52;100777.44;;;2.83;100.00
59608;BME280;45426;44.726;10.390;2023-04-05T01:12:22;100779.31;;;2.93;100.00
59608;BME280;45426;44.726;10.390;2023-04-05T01:14:52;100774.81;;;2.68;100.00
59608;BME280;45426;44.726;10.390;2023-04-05T01:17:22;100774.00;;;2.42;100.00
59608;BME280;45426;44.726;10.390;2023-04-05T01:19:55;100782.84;;;2.06;100.00
59608;BME280;45426;44.726;10.390;2023-04-05T01:25:53;100778.03;;;2.49;100.00
59608;BME280;45426;44.726;10.390;2023-04-05T01:34:22;100784.19;;;2.19;100.00
59608;BME280;45426;44.726;10.390;2023-04-05T01:36:57;100780.41;;;1.89;100.00
59608;BME280;45426;44.726;10.390;2023-04-05T01:39:25;100781.78;;;2.33;100.00
59608;BME280;45426;44.726;10.390;2023-04-05T01:41:51;100783.13;;;2.36;100.00
59608;BME280;45426;44.726;10.390;2023-04-05T01:44:22;100779.66;;;2.25;100.00
59608;BME280;45426;44.726;10.390;2023-04-05T01:46:47;100774.44;;;1.72;100.00
59608;BME280;45426;44.726;10.390;2023-04-05T01:49:12;100777.72;;;1.89;100.00
59608;BME280;45426;44.726;10.390;2023-04-05T01:51:38;100779.66;;;1.26;100.00
59608;BME280;45426;44.726;10.390;2023-04-05T01:54:06;100776.06;;;1.00;100.00
59608;BME280;45426;44.726;10.390;2023-04-05T01:56:31;100775.47;;;0.92;100.00
59608;BME280;45426;44.726;10.390;2023-04-05T01:58:57;100782.09;;;0.80;100.00
59608;BME280;45426;44.726;10.390;2023-04-05T02:01:22;100778.22;;;1.08;100.00
59608;BME280;45426;44.726;10.390;2023-04-05T02:03:48;100775.63;;;1.23;100.00
59608;BME280;45426;44.726;10.390;2023-04-05T02:06:14;100774.53;;;1.19;100.00
59608;BME280;45426;44.726;10.390;2023-04-05T02:08:40;100771.91;;;1.34;100.00
59608;BME280;45426;44.726;10.390;2023-04-05T02:11:06;100766.34;;;1.51;100.00
59608;BME280;45426;44.726;10.390;2023-04-05T02:13:31;100765.16;;;1.16;100.00
59608;BME280;45426;44.726;10.390;2023-04-05T02:15:56;100766.56;;;1.34;100.00
59608;BME280;45426;44.726;10.390;2023-04-05T02:18:22;100767.41;;;1.45;100.00
59608;BME280;45426;44.726;10.390;2023-04-05T02:21:00;100769.41;;;1.81;100.00
59608;BME280;45426;44.726;10.390;2023-04-05T02:23:26;100762.44;;;2.67;100.00
59608;BME280;45426;44.726;10.390;2023-04-05T02:25:55;100764.56;;;2.80;100.00
59608;BME280;45426;44.726;10.390;2023-04-05T02:28:20;100762.88;;;3.10;100.00
59608;BME280;45426;44.726;10.390;2023-04-05T02:30:45;100764.34;;;2.41;100.00
59608;BME280;45426;44.726;10.390;2023-04-05T02:33:11;100770.22;;;2.02;100.00
59608;BME280;45426;44.726;10.390;2023-04-05T02:35:36;100768.38;;;2.43;100.00
59608;BME280;45426;44.726;10.390;2023-04-05T02:38:03;100764.34;;;2.66;100.00
59608;BME280;45426;44.726;10.390;2023-04-05T02:40:29;100771.06;;;2.53;100.00
59608;BME280;45426;44.726;10.390;2023-04-05T02:42:54;100767.28;;;2.70;100.00
59608;BME280;45426;44.726;10.390;2023-04-05T02:45:20;100771.91;;;1.34;100.00
59608;BME280;45426;44.726;10.390;2023-04-05T02:47:45;100759.94;;;0.89;100.00
59608;BME280;45426;44.726;10.390;2023-04-05T02:50:11;100766.69;;;0.60;100.00
59608;BME280;45426;44.726;10.390;2023-04-05T02:52:36;100763.47;;;0.57;100.00
59608;BME280;45426;44.726;10.390;2023-04-05T02:55:06;100766.38;;;0.88;100.00
59608;BME280;45426;44.726;10.390;2023-04-05T02:57:31;100763.59;;;1.26;100.00
59608;BME280;45426;44.726;10.390;2023-04-05T02:59:57;100755.50;;;2.30;100.00
59608;BME280;45426;44.726;10.390;2023-04-05T03:02:22;100766.22;;;2.50;100.00
59608;BME280;45426;44.726;10.390;2023-04-05T03:04:51;100771.59;;;2.30;100.00
59608;BME280;45426;44.726;10.390;2023-04-05T03:07:17;100774.81;;;2.11;100.00
59608;BME280;45426;44.726;10.390;2023-04-05T03:09:45;100771.34;;;2.26;100.00
59608;BME280;45426;44.726;10.390;2023-04-05T03:12:11;100770.78;;;2.09;100.00
59608;BME280;45426;44.726;10.390;2023-04-05T03:14:38;100789.78;;;1.97;100.00
59608;BME280;45426;44.726;10.390;2023-04-05T03:17:03;100779.66;;;2.45;100.00
59608;BME280;45426;44.726;10.390;2023-04-05T03:19:29;100778.84;;;2.35;100.00
59608;BME280;45426;44.726;10.390;2023-04-05T03:21:54;100785.53;;;2.63;100.00
59608;BME280;45426;44.726;10.390;2023-04-05T03:24:20;100787.66;;;2.14;100.00
59608;BME280;45426;44.726;10.390;2023-04-05T03:26:46;100783.41;;;2.29;100.00
59608;BME280;45426;44.726;10.390;2023-04-05T03:29:12;100785.25;;;2.08;100.00
59608;BME280;45426;44.726;10.390;2023-04-05T03:31:38;100789.84;;;2.43;100.00
59608;BME280;45426;44.726;10.390;2023-04-05T03:34:03;100786.88;;;2.60;100.00
59608;BME280;45426;44.726;10.390;2023-04-05T03:36:29;100787.16;;;2.64;100.00
59608;BME280;45426;44.726;10.390;2023-04-05T03:38:55;100788.75;;;2.65;100.00
59608;BME280;45426;44.726;10.390;2023-04-05T03:41:21;100785.00;;;2.56;100.00
59608;BME280;45426;44.726;10.390;2023-04-05T03:43:47;100788.75;;;2.13;100.00
59608;BME280;45426;44.726;10.390;2023-04-05T03:46:13;100782.06;;;2.37;100.00
59608;BME280;45426;44.726;10.390;2023-04-05T03:48:38;100784.47;;;2.33;100.00
59608;BME280;45426;44.726;10.390;2023-04-05T03:51:03;100795.75;;;2.45;100.00
59608;BME280;45426;44.726;10.390;2023-04-05T03:53:29;100778.81;;;2.45;100.00
59608;BME280;45426;44.726;10.390;2023-04-05T03:55:55;100794.66;;;2.26;100.00
59608;BME280;45426;44.726;10.390;2023-04-05T03:58:21;100791.16;;;2.46;100.00
59608;BME280;45426;44.726;10.390;2023-04-05T04:00:46;100790.38;;;2.35;100.00
59608;BME280;45426;44.726;10.390;2023-04-05T04:03:13;100787.66;;;1.99;100.00
59608;BME280;45426;44.726;10.390;2023-04-05T04:05:39;100784.72;;;2.31;100.00
59608;BME280;45426;44.726;10.390;2023-04-05T04:08:05;100784.19;;;2.09;100.00
59608;BME280;45426;44.726;10.390;2023-04-05T04:10:30;100776.56;;;1.54;100.00
59608;BME280;45426;44.726;10.390;2023-04-05T04:12:56;100779.41;;;1.27;100.00
59608;BME280;45426;44.726;10.390;2023-04-05T04:15:21;100781.16;;;1.06;100.00
59608;BME280;45426;44.726;10.390;2023-04-05T04:17:47;100789.72;;;1.08;100.00
59608;BME280;45426;44.726;10.390;2023-04-05T04:20:12;100782.63;;;1.34;100.00
59608;BME280;45426;44.726;10.390;2023-04-05T04:22:38;100785.22;;;1.92;100.00
59608;BME280;45426;44.726;10.390;2023-04-05T04:25:05;100789.03;;;2.32;100.00
59608;BME280;45426;44.726;10.390;2023-04-05T04:27:34;100784.19;;;2.09;100.00
59608;BME280;45426;44.726;10.390;2023-04-05T04:29:59;100783.91;;;2.05;100.00
59608;BME280;45426;44.726;10.390;2023-04-05T04:32:28;100792.34;;;1.51;100.00
59608;BME280;45426;44.726;10.390;2023-04-05T04:35:13;100779.84;;;1.09;100.00
59608;BME280;45426;44.726;10.390;2023-04-05T04:37:44;100775.69;;;0.86;100.00
59608;BME280;45426;44.726;10.390;2023-04-05T04:40:11;100787.75;;;1.41;100.00
59608;BME280;45426;44.726;10.390;2023-04-05T04:42:39;100794.41;;;1.33;100.00
59608;BME280;45426;44.726;10.390;2023-04-05T04:45:08;100805.16;;;1.39;100.00
59608;BME280;45426;44.726;10.390;2023-04-05T04:47:34;100799.84;;;1.54;100.00
59608;BME280;45426;44.726;10.390;2023-04-05T04:50:02;100794.81;;;1.68;100.00
59608;BME280;45426;44.726;10.390;2023-04-05T04:52:29;100804.53;;;1.94;100.00
59608;BME280;45426;44.726;10.390;2023-04-05T04:54:54;100818.47;;;2.02;100.00
59608;BME280;45426;44.726;10.390;2023-04-05T04:57:20;100807.00;;;1.33;100.00
59608;BME280;45426;44.726;10.390;2023-04-05T04:59:45;100803.16;;;1.87;100.00
59608;BME280;45426;44.726;10.390;2023-04-05T05:02:10;100805.88;;;1.97;100.00
59608;BME280;45426;44.726;10.390;2023-04-05T05:04:36;100807.50;;;2.08;100.00
59608;BME280;45426;44.726;10.390;2023-04-05T05:07:01;100813.41;;;2.16;100.00
59608;BME280;45426;44.726;10.390;2023-04-05T05:09:27;100814.44;;;1.99;100.00
59608;BME280;45426;44.726;10.390;2023-04-05T05:11:52;100815.84;;;2.32;100.00
59608;BME280;45426;44.726;10.390;2023-04-05T05:14:18;100822.84;;;2.49;100.00
59608;BME280;45426;44.726;10.390;2023-04-05T05:16:43;100817.59;;;1.75;100.00
59608;BME280;45426;44.726;10.390;2023-04-05T05:19:08;100816.59;;;1.29;100.00
59608;BME280;45426;44.726;10.390;2023-04-05T05:21:34;100818.25;;;1.40;100.00
59608;BME280;45426;44.726;10.390;2023-04-05T05:24:00;100820.78;;;1.62;100.00
59608;BME280;45426;44.726;10.390;2023-04-05T05:26:26;100826.56;;;2.48;100.00
59608;BME280;45426;44.726;10.390;2023-04-05T05:28:51;100837.03;;;2.85;100.00
59608;BME280;45426;44.726;10.390;2023-04-05T05:31:17;100829.19;;;1.91;100.00
59608;BME280;45426;44.726;10.390;2023-04-05T05:33:43;100834.47;;;1.71;100.00
59608;BME280;45426;44.726;10.390;2023-04-05T05:36:11;100826.22;;;1.88;100.00
59608;BME280;45426;44.726;10.390;2023-04-05T05:38:37;100840.47;;;2.24;100.00
59608;BME280;45426;44.726;10.390;2023-04-05T05:41:02;100819.25;;;3.15;100.00
59608;BME280;45426;44.726;10.390;2023-04-05T05:43:28;100829.34;;;3.54;100.00
59608;BME280;45426;44.726;10.390;2023-04-05T05:45:53;100829.47;;;3.13;100.00
59608;BME280;45426;44.726;10.390;2023-04-05T05:48:18;100833.78;;;2.73;100.00
59608;BME280;45426;44.726;10.390;2023-04-05T05:50:44;100831.88;;;2.99;100.00
59608;BME280;45426;44.726;10.390;2023-04-05T05:53:13;100829.50;;;2.31;100.00
59608;BME280;45426;44.726;10.390;2023-04-05T05:55:38;100831.94;;;2.58;100.00
59608;BME280;45426;44.726;10.390;2023-04-05T05:58:03;100831.38;;;2.82;100.00
59608;BME280;45426;44.726;10.390;2023-04-05T06:00:29;100828.00;;;4.06;100.00
59608;BME280;45426;44.726;10.390;2023-04-05T06:02:54;100830.44;;;4.42;100.00
59608;BME280;45426;44.726;10.390;2023-04-05T06:05:20;100835.91;;;4.32;100.00
59608;BME280;45426;44.726;10.390;2023-04-05T06:07:45;100834.78;;;4.38;100.00
59608;BME280;45426;44.726;10.390;2023-04-05T06:10:11;100831.13;;;4.19;100.00
59608;BME280;45426;44.726;10.390;2023-04-05T06:12:37;100844.25;;;4.65;100.00
59608;BME280;45426;44.726;10.390;2023-04-05T06:15:03;100838.00;;;5.52;100.00
59608;BME280;45426;44.726;10.390;2023-04-05T06:17:29;100833.53;;;6.29;100.00
59608;BME280;45426;44.726;10.390;2023-04-05T06:19:54;100840.53;;;5.87;100.00
59608;BME280;45426;44.726;10.390;2023-04-05T06:22:20;100831.63;;;7.09;100.00
59608;BME280;45426;44.726;10.390;2023-04-05T06:24:47;100829.84;;;7.18;100.00
59608;BME280;45426;44.726;10.390;2023-04-05T06:27:12;100824.34;;;6.63;100.00
59608;BME280;45426;44.726;10.390;2023-04-05T06:29:38;100827.25;;;7.54;100.00
59608;BME280;45426;44.726;10.390;2023-04-05T06:32:04;100829.63;;;7.70;100.00
59608;BME280;45426;44.726;10.390;2023-04-05T06:34:30;100832.22;;;9.33;100.00
59608;BME280;45426;44.726;10.390;2023-04-05T06:36:55;100823.09;;;10.74;100.00
59608;BME280;45426;44.726;10.390;2023-04-05T06:39:21;100813.28;;;10.99;100.00
59608;BME280;45426;44.726;10.390;2023-04-05T06:41:46;100814.19;;;12.55;100.00
59608;BME280;45426;44.726;10.390;2023-04-05T06:44:12;100818.25;;;11.35;100.00
59608;BME280;45426;44.726;10.390;2023-04-05T06:46:37;100821.34;;;12.27;100.00
59608;BME280;45426;44.726;10.390;2023-04-05T06:49:04;100819.00;;;13.53;100.00
59608;BME280;45426;44.726;10.390;2023-04-05T06:51:30;100823.44;;;13.46;100.00
59608;BME280;45426;44.726;10.390;2023-04-05T06:53:55;100817.53;;;13.44;100.00
59608;BME280;45426;44.726;10.390;2023-04-05T06:56:21;100819.09;;;11.57;100.00
59608;BME280;45426;44.726;10.390;2023-04-05T06:58:47;100820.72;;;13.46;100.00
59608;BME280;45426;44.726;10.390;2023-04-05T07:01:13;100811.16;;;14.89;100.00
59608;BME280;45426;44.726;10.390;2023-04-05T07:03:39;100799.66;;;16.02;95.94
59608;BME280;45426;44.726;10.390;2023-04-05T07:06:04;100803.13;;;19.93;77.96
59608;BME280;45426;44.726;10.390;2023-04-05T07:08:31;100806.94;;;22.61;64.08
59608;BME280;45426;44.726;10.390;2023-04-05T07:10:57;100803.88;;;24.46;59.16
59608;BME280;45426;44.726;10.390;2023-04-05T07:13:23;100813.97;;;22.73;54.40
59608;BME280;45426;44.726;10.390;2023-04-05T07:15:50;100822.91;;;22.28;51.31
59608;BME280;45426;44.726;10.390;2023-04-05T07:18:16;100821.00;;;19.54;57.01
59608;BME280;45426;44.726;10.390;2023-04-05T07:20:45;100802.69;;;25.21;54.15
59608;BME280;45426;44.726;10.390;2023-04-05T07:23:11;100820.34;;;20.70;54.89
59608;BME280;45426;44.726;10.390;2023-04-05T07:25:38;100815.25;;;20.98;51.85
59608;BME280;45426;44.726;10.390;2023-04-05T07:28:04;100816.38;;;22.67;53.94
59608;BME280;45426;44.726;10.390;2023-04-05T07:30:30;100805.31;;;25.75;50.17
59608;BME280;45426;44.726;10.390;2023-04-05T07:32:56;100810.19;;;23.47;48.06
59608;BME280;45426;44.726;10.390;2023-04-05T07:35:22;100811.16;;;23.29;47.51
59608;BME280;45426;44.726;10.390;2023-04-05T07:37:48;100819.34;;;20.12;47.41
59608;BME280;45426;44.726;10.390;2023-04-05T07:40:13;100827.69;;;20.23;50.07
59608;BME280;45426;44.726;10.390;2023-04-05T07:42:39;100822.59;;;22.05;47.95
59608;BME280;45426;44.726;10.390;2023-04-05T07:45:05;100819.63;;;19.82;47.99
59608;BME280;45426;44.726;10.390;2023-04-05T07:47:32;100838.25;;;18.24;49.69
59608;BME280;45426;44.726;10.390;2023-04-05T07:49:58;100820.78;;;20.94;48.34
59608;BME280;45426;44.726;10.390;2023-04-05T07:52:24;100826.16;;;20.40;49.28
59608;BME280;45426;44.726;10.390;2023-04-05T07:54:49;100833.34;;;21.81;51.43
59608;BME280;45426;44.726;10.390;2023-04-05T07:57:16;100829.97;;;23.03;50.16
59608;BME280;45426;44.726;10.390;2023-04-05T07:59:45;100828.66;;;20.96;49.88
59608;BME280;45426;44.726;10.390;2023-04-05T08:02:10;100831.41;;;23.64;49.18
59608;BME280;45426;44.726;10.390;2023-04-05T08:04:36;100836.47;;;22.79;48.39
59608;BME280;45426;44.726;10.390;2023-04-05T08:07:01;100829.69;;;20.26;50.82
59608;BME280;45426;44.726;10.390;2023-04-05T08:09:27;100832.59;;;20.94;47.84
59608;BME280;45426;44.726;10.390;2023-04-05T08:11:52;100827.06;;;20.69;49.02
59608;BME280;45426;44.726;10.390;2023-04-05T08:14:18;100829.22;;;22.33;50.62
59608;BME280;45426;44.726;10.390;2023-04-05T08:16:43;100823.31;;;26.47;48.63
59608;BME280;45426;44.726;10.390;2023-04-05T08:19:08;100820.13;;;23.86;44.67
59608;BME280;45426;44.726;10.390;2023-04-05T08:21:34;100833.09;;;19.39;43.87
59608;BME280;45426;44.726;10.390;2023-04-05T08:24:00;100833.41;;;20.99;47.30
59608;BME280;45426;44.726;10.390;2023-04-05T08:26:25;100832.94;;;21.86;47.54
59608;BME280;45426;44.726;10.390;2023-04-05T08:28:51;100820.72;;;24.62;48.23
59608;BME280;45426;44.726;10.390;2023-04-05T08:31:16;100827.28;;;19.51;44.80
59608;BME280;45426;44.726;10.390;2023-04-05T08:33:42;100841.88;;;18.32;46.50
59608;BME280;45426;44.726;10.390;2023-04-05T08:36:08;100841.81;;;17.18;53.41
59608;BME280;45426;44.726;10.390;2023-04-05T08:38:34;100848.50;;;14.01;68.45
59608;BME280;45426;44.726;10.390;2023-04-05T08:46:14;100843.59;;;14.47;70.35
59608;BME280;45426;44.726;10.390;2023-04-05T08:48:40;100847.63;;;14.37;71.64
59608;BME280;45426;44.726;10.390;2023-04-05T08:51:06;100842.81;;;14.34;72.67
59608;BME280;45426;44.726;10.390;2023-04-05T08:53:33;100836.38;;;16.17;65.79
59608;BME280;45426;44.726;10.390;2023-04-05T08:55:59;100846.56;;;14.70;61.64
59608;BME280;45426;44.726;10.390;2023-04-05T08:58:26;100853.22;;;13.88;60.62
59608;BME280;45426;44.726;10.390;2023-04-05T09:00:54;100837.66;;;14.16;68.49
59608;BME280;45426;44.726;10.390;2023-04-05T09:03:22;100836.34;;;14.39;66.58
59608;BME280;45426;44.726;10.390;2023-04-05T09:05:50;100831.25;;;15.13;68.16
59608;BME280;45426;44.726;10.390;2023-04-05T09:08:16;100836.31;;;14.10;60.46
59608;BME280;45426;44.726;10.390;2023-04-05T09:10:43;100844.91;;;14.81;62.75
59608;BME280;45426;44.726;10.390;2023-04-05T09:13:08;100839.63;;;14.88;61.79
59608;BME280;45426;44.726;10.390;2023-04-05T09:15:35;100832.84;;;14.66;64.33
59608;BME280;45426;44.726;10.390;2023-04-05T09:18:02;100838.25;;;14.38;60.73
59608;BME280;45426;44.726;10.390;2023-04-05T09:20:27;100845.38;;;13.49;70.67
59608;BME280;45426;44.726;10.390;2023-04-05T09:22:55;100834.59;;;14.06;68.80
59608;BME280;45426;44.726;10.390;2023-04-05T09:27:57;100834.03;;;14.12;83.54
59608;BME280;45426;44.726;10.390;2023-04-05T09:30:23;100838.03;;;14.03;65.84
59608;BME280;45426;44.726;10.390;2023-04-05T09:32:50;100842.53;;;12.00;71.21
59608;BME280;45426;44.726;10.390;2023-04-05T09:35:24;100835.28;;;12.46;78.70
59608;BME280;45426;44.726;10.390;2023-04-05T09:37:52;100831.16;;;13.68;70.47
59608;BME280;45426;44.726;10.390;2023-04-05T09:40:18;100834.06;;;13.01;63.92
59608;BME280;45426;44.726;10.390;2023-04-05T09:42:44;100829.50;;;12.48;65.74
59608;BME280;45426;44.726;10.390;2023-04-05T09:45:10;100825.59;;;14.46;74.35
59608;BME280;45426;44.726;10.390;2023-04-05T09:47:36;100819.53;;;14.24;61.63
59608;BME280;45426;44.726;10.390;2023-04-05T09:50:17;100827.13;;;12.04;61.11
59608;BME280;45426;44.726;10.390;2023-04-05T09:52:44;100824.75;;;13.89;65.05
59608;BME280;45426;44.726;10.390;2023-04-05T09:55:10;100814.78;;;12.28;60.49
59608;BME280;45426;44.726;10.390;2023-04-05T09:57:36;100818.97;;;14.18;66.58
59608;BME280;45426;44.726;10.390;2023-04-05T10:00:04;100818.59;;;12.27;64.26
59608;BME280;45426;44.726;10.390;2023-04-05T10:02:37;100821.47;;;12.30;62.45
59608;BME280;45426;44.726;10.390;2023-04-05T10:05:09;100819.00;;;12.37;58.51
59608;BME280;45426;44.726;10.390;2023-04-05T10:07:38;100827.25;;;13.20;59.82
59608;BME280;45426;44.726;10.390;2023-04-05T10:10:04;100823.28;;;12.26;57.27
59608;BME280;45426;44.726;10.390;2023-04-05T10:12:31;100813.16;;;13.18;59.48
59608;BME280;45426;44.726;10.390;2023-04-05T10:14:56;100810.00;;;14.18;64.90
59608;BME280;45426;44.726;10.390;2023-04-05T10:18:07;100820.53;;;12.93;63.20
59608;BME280;45426;44.726;10.390;2023-04-05T10:20:38;100822.91;;;12.82;61.89
59608;BME280;45426;44.726;10.390;2023-04-05T10:23:20;100826.41;;;12.49;61.59
59608;BME280;45426;44.726;10.390;2023-04-05T10:26:03;100827.88;;;10.85;60.45
59608;BME280;45426;44.726;10.390;2023-04-05T10:28:32;100815.38;;;12.67;59.97
59608;BME280;45426;44.726;10.390;2023-04-05T10:31:14;100799.94;;;13.82;63.89
59608;BME280;45426;44.726;10.390;2023-04-05T10:33:44;100798.38;;;13.68;61.07
59608;BME280;45426;44.726;10.390;2023-04-05T10:39:32;100809.34;;;13.44;60.31
59608;BME280;45426;44.726;10.390;2023-04-05T10:42:19;100796.72;;;12.02;61.63
59608;BME280;45426;44.726;10.390;2023-04-05T10:44:45;100801.50;;;14.35;66.34
59608;BME280;45426;44.726;10.390;2023-04-05T10:47:17;100800.09;;;12.20;62.48
59608;BME280;45426;44.726;10.390;2023-04-05T10:49:45;100801.41;;;12.14;62.53
59608;BME280;45426;44.726;10.390;2023-04-05T10:52:12;100791.31;;;11.42;61.37
59608;BME280;45426;44.726;10.390;2023-04-05T10:54:39;100786.53;;;11.69;62.17
59608;BME280;45426;44.726;10.390;2023-04-05T10:57:06;100787.31;;;12.33;60.84
59608;BME280;45426;44.726;10.390;2023-04-05T10:59:33;100787.28;;;12.66;62.13
59608;BME280;45426;44.726;10.390;2023-04-05T11:02:00;100787.66;;;12.77;68.36
59608;BME280;45426;44.726;10.390;2023-04-05T11:04:26;100784.09;;;13.34;63.44
59608;BME280;45426;44.726;10.390;2023-04-05T11:07:11;100797.16;;;12.04;63.13
59608;BME280;45426;44.726;10.390;2023-04-05T11:09:37;100786.72;;;12.60;63.74
59608;BME280;45426;44.726;10.390;2023-04-05T11:12:04;100788.88;;;12.21;64.32
59608;BME280;45426;44.726;10.390;2023-04-05T11:14:36;100771.91;;;13.44;66.30
59608;BME280;45426;44.726;10.390;2023-04-05T11:17:03;100775.84;;;12.27;62.95
59608;BME280;45426;44.726;10.390;2023-04-05T11:19:48;100773.28;;;12.89;64.45
59608;BME280;45426;44.726;10.390;2023-04-05T11:22:28;100777.72;;;12.48;63.39
59608;BME280;45426;44.726;10.390;2023-04-05T11:24:56;100771.00;;;12.91;68.42
59608;BME280;45426;44.726;10.390;2023-04-05T11:27:30;100767.88;;;12.22;65.21
59608;BME280;45426;44.726;10.390;2023-04-05T11:29:58;100760.44;;;13.14;65.37
59608;BME280;45426;44.726;10.390;2023-04-05T11:32:40;100760.03;;;12.20;65.03
59608;BME280;45426;44.726;10.390;2023-04-05T11:35:12;100751.81;;;13.36;66.13
59608;BME280;45426;44.726;10.390;2023-04-05T11:40:29;100750.88;;;13.97;64.71
59608;BME280;45426;44.726;10.390;2023-04-05T11:43:05;100751.69;;;13.45;65.20
59608;BME280;45426;44.726;10.390;2023-04-05T11:45:32;100753.13;;;13.67;63.75
59608;BME280;45426;44.726;10.390;2023-04-05T11:47:59;100744.25;;;12.72;62.67
59608;BME280;45426;44.726;10.390;2023-04-05T11:50:25;100743.59;;;13.24;66.29
59608;BME280;45426;44.726;10.390;2023-04-05T11:55:37;100746.16;;;11.20;63.53
59608;BME280;45426;44.726;10.390;2023-04-05T11:58:11;100747.56;;;11.98;63.74
59608;BME280;45426;44.726;10.390;2023-04-05T12:00:36;100742.03;;;11.86;65.54
59608;BME280;45426;44.726;10.390;2023-04-05T12:03:02;100727.50;;;12.36;64.60
59608;BME280;45426;44.726;10.390;2023-04-05T12:05:52;100729.88;;;12.38;67.47
59608;BME280;45426;44.726;10.390;2023-04-05T12:08:19;100737.25;;;12.83;68.52
59608;BME280;45426;44.726;10.390;2023-04-05T12:10:58;100731.81;;;13.08;69.59
59608;BME280;45426;44.726;10.390;2023-04-05T12:13:28;100740.44;;;13.10;66.84
59608;BME280;45426;44.726;10.390;2023-04-05T12:15:56;100732.19;;;12.48;64.48
59608;BME280;45426;44.726;10.390;2023-04-05T12:18:23;100725.88;;;12.23;64.14
59608;BME280;45426;44.726;10.390;2023-04-05T12:20:49;100731.88;;;12.62;71.25
59608;BME280;45426;44.726;10.390;2023-04-05T12:23:15;100725.00;;;12.43;68.11
59608;BME280;45426;44.726;10.390;2023-04-05T12:25:45;100728.44;;;12.07;68.75
59608;BME280;45426;44.726;10.390;2023-04-05T12:28:11;100722.69;;;12.91;68.53
59608;BME280;45426;44.726;10.390;2023-04-05T12:30:54;100720.19;;;12.86;73.38
59608;BME280;45426;44.726;10.390;2023-04-05T12:33:25;100707.63;;;13.59;85.10
59608;BME280;45426;44.726;10.390;2023-04-05T12:35:51;100706.91;;;14.31;75.31
59608;BME280;45426;44.726;10.390;2023-04-05T12:38:17;100712.47;;;12.76;71.87
59608;BME280;45426;44.726;10.390;2023-04-05T12:40:42;100695.28;;;13.37;72.56
59608;BME280;45426;44.726;10.390;2023-04-05T12:43:09;100702.03;;;13.02;71.38
59608;BME280;45426;44.726;10.390;2023-04-05T12:45:34;100704.16;;;12.48;72.35
59608;BME280;45426;44.726;10.390;2023-04-05T12:48:08;100690.09;;;12.70;73.06
59608;BME280;45426;44.726;10.390;2023-04-05T12:50:42;100696.38;;;12.25;75.00
59608;BME280;45426;44.726;10.390;2023-04-05T12:53:18;100703.84;;;12.16;74.97
59608;BME280;45426;44.726;10.390;2023-04-05T12:55:51;100702.38;;;11.76;76.86
59608;BME280;45426;44.726;10.390;2023-04-05T12:58:18;100693.91;;;13.18;78.10
59608;BME280;45426;44.726;10.390;2023-04-05T13:00:44;100688.09;;;13.57;96.43
59608;BME280;45426;44.726;10.390;2023-04-05T13:03:19;100681.84;;;13.56;74.02
59608;BME280;45426;44.726;10.390;2023-04-05T13:05:46;100695.88;;;12.69;79.37
59608;BME280;45426;44.726;10.390;2023-04-05T13:08:13;100687.91;;;13.13;76.98